Time;durP1;ratioP1;P1;durP2;ratioP2;P2;SDS_P1;SDS_P2;PMS_P1;PMS_P2;Temp;Humidity;BMP_temperature;BMP_pressure;BME280_temperature;BME280_humidity;BME280_pressure;Samples;Min_cycle;Max_cycle;Signal;HPM_P1;HPM_P2
2021/08/01 00:01:19;;;;;;;;;;;;;;;21.27;76.91;99401.92;1678926;84;20238;-79
2021/08/01 00:03:45;;;;;;;;;;;;;;;21.09;77.63;99395.75;1676075;84;20217;-79
2021/08/01 00:06:12;;;;;;;;;;;;;;;21.01;77.96;99398.84;1681449;84;21100;-80
2021/08/01 00:08:39;;;;;;;;;;;;;;;20.92;78.43;99400.30;1667717;84;20165;-78
2021/08/01 00:11:08;;;;;;;;;;;;;;;20.80;78.85;99398.51;1689542;84;20167;-79
2021/08/01 00:13:35;;;;;;;;;;;;;;;20.89;78.22;99394.88;1690119;84;20234;-84
2021/08/01 00:16:01;;;;;;;;;;;;;;;20.82;78.33;99397.43;1691668;84;20483;-79
2021/08/01 00:18:28;;;;;;;;;;;;;;;20.86;78.01;99405.30;1693152;83;22084;-80
2021/08/01 00:20:57;;;;;;;;;;;;;;;20.68;78.62;99408.99;1694334;84;20174;-82
2021/08/01 00:23:25;;;;;;;;;;;;;;;20.69;78.45;99420.83;1695216;84;20170;-79
2021/08/01 00:25:50;;;;;;;;;;;;;;;20.66;77.91;99413.80;1694086;84;20183;-79
2021/08/01 00:28:17;;;;;;;;;;;;;;;20.38;78.60;99410.83;1694506;84;20165;-79
2021/08/01 00:30:44;;;;;;;;;;;;;;;20.42;78.24;99420.04;1670507;84;21684;-78
2021/08/01 00:33:11;;;;;;;;;;;;;;;20.55;77.39;99419.47;1696696;84;21101;-79
2021/08/01 00:35:36;;;;;;;;;;;;;;;20.51;77.73;99420.98;1659314;84;20135;-82
2021/08/01 00:38:03;;;;;;;;;;;;;;;20.59;77.11;99425.99;1686439;84;20124;-78
2021/08/01 00:40:32;;;;;;;;;;;;;;;20.66;77.12;99421.84;1693590;84;20220;-79
2021/08/01 00:42:59;;;;;;;;;;;;;;;20.59;77.05;99425.99;1694340;84;20154;-78
2021/08/01 00:45:27;;;;;;;;;;;;;;;20.61;77.02;99425.22;1694392;84;20555;-80
2021/08/01 00:47:52;;;;;;;;;;;;;;;20.59;76.92;99420.63;1695274;84;20212;-82
2021/08/01 00:50:18;;;;;;;;;;;;;;;20.40;77.27;99415.45;1658878;84;20111;-81
2021/08/01 00:52:44;;;;;;;;;;;;;;;20.52;76.79;99421.29;1695163;84;20204;-82
2021/08/01 00:55:10;;;;;;;;;;;;;;;20.39;77.04;99423.20;1695164;84;21873;-79
2021/08/01 00:57:38;;;;;;;;;;;;;;;20.24;77.00;99425.58;1695159;84;20159;-83
2021/08/01 01:00:06;;;;;;;;;;;;;;;20.25;77.29;99432.58;1690776;84;20518;-80
2021/08/01 01:02:36;;;;;;;;;;;;;;;20.30;76.38;99436.69;1693384;84;20252;-80
2021/08/01 01:05:25;;;;;;;;;;;;;;;20.38;75.31;99441.67;1692345;84;20167;-82
2021/08/01 01:08:13;;;;;;;;;;;;;;;20.41;74.66;99431.00;1690247;84;20233;-78
2021/08/01 01:10:40;;;;;;;;;;;;;;;20.45;74.14;99434.31;1686102;83;20241;-78
2021/08/01 01:13:12;;;;;;;;;;;;;;;20.36;73.91;99435.74;1681842;84;20234;-78
2021/08/01 01:15:45;;;;;;;;;;;;;;;20.30;74.48;99431.87;1681310;84;20178;-78
2021/08/01 01:18:15;;;;;;;;;;;;;;;20.27;74.37;99437.17;1672307;84;20220;-78
2021/08/01 01:20:59;;;;;;;;;;;;;;;20.09;74.44;99438.97;1673658;84;21164;-78
2021/08/01 01:23:46;;;;;;;;;;;;;;;20.15;74.00;99442.58;1677504;84;20109;-80
2021/08/01 01:26:16;;;;;;;;;;;;;;;20.13;73.88;99447.34;1670483;84;20173;-79
2021/08/01 01:29:00;;;;;;;;;;;;;;;20.13;73.58;99446.53;1679149;84;20149;-78
2021/08/01 01:31:35;;;;;;;;;;;;;;;20.15;73.38;99447.94;1678609;84;20573;-79
2021/08/01 01:34:04;;;;;;;;;;;;;;;20.11;73.28;99440.06;1675462;84;21025;-79
2021/08/01 01:36:29;;;;;;;;;;;;;;;20.17;73.10;99435.64;1674488;84;20483;-79
2021/08/01 01:38:57;;;;;;;;;;;;;;;20.19;71.96;99426.83;1673961;84;20160;-79
2021/08/01 01:41:24;;;;;;;;;;;;;;;20.23;71.66;99427.98;1675498;84;20157;-78
2021/08/01 01:43:54;;;;;;;;;;;;;;;20.25;71.37;99426.68;1670423;84;20173;-77
2021/08/01 01:46:23;;;;;;;;;;;;;;;20.28;70.80;99428.08;1672367;84;21135;-78
2021/08/01 01:48:53;;;;;;;;;;;;;;;20.30;70.94;99428.65;1670570;84;20194;-78
2021/08/01 01:51:19;;;;;;;;;;;;;;;20.19;71.47;99428.97;1676174;84;20284;-79
2021/08/01 01:53:45;;;;;;;;;;;;;;;20.15;71.56;99432.36;1675398;84;20239;-79
2021/08/01 01:56:11;;;;;;;;;;;;;;;20.08;71.66;99437.33;1674263;84;20145;-79
2021/08/01 01:58:38;;;;;;;;;;;;;;;20.02;71.92;99442.29;1667867;84;21281;-78
2021/08/01 02:01:05;;;;;;;;;;;;;;;20.15;71.72;99436.37;1668261;84;20601;-79
2021/08/01 02:03:33;;;;;;;;;;;;;;;20.03;71.88;99434.55;1670260;84;20272;-78
2021/08/01 02:06:02;;;;;;;;;;;;;;;20.11;71.31;99440.61;1649429;85;20551;-77
2021/08/01 02:08:33;;;;;;;;;;;;;;;20.11;71.11;99443.28;1669298;84;20152;-77
2021/08/01 02:11:00;;;;;;;;;;;;;;;20.15;70.90;99444.42;1678227;84;21199;-77
2021/08/01 02:13:34;;;;;;;;;;;;;;;20.13;70.53;99439.83;1684577;84;20133;-78
2021/08/01 02:15:59;;;;;;;;;;;;;;;20.23;69.93;99441.39;1683409;84;20192;-80
2021/08/01 02:18:31;;;;;;;;;;;;;;;20.22;69.42;99436.53;1687018;84;20676;-83
2021/08/01 02:20:56;;;;;;;;;;;;;;;20.23;69.22;99438.72;1685100;84;20154;-79
2021/08/01 02:23:26;;;;;;;;;;;;;;;20.19;69.14;99441.03;1685492;84;21886;-82
2021/08/01 02:25:52;;;;;;;;;;;;;;;20.38;68.55;99441.67;1685007;84;20553;-78
2021/08/01 02:28:20;;;;;;;;;;;;;;;20.39;68.43;99439.29;1659863;84;20182;-79
2021/08/01 02:30:45;;;;;;;;;;;;;;;20.42;67.99;99442.83;1687001;84;20531;-81
2021/08/01 02:33:15;;;;;;;;;;;;;;;20.36;68.01;99443.78;1660677;84;20206;-78
2021/08/01 02:35:42;;;;;;;;;;;;;;;20.34;67.58;99447.24;1663051;84;21774;-78
2021/08/01 02:38:10;;;;;;;;;;;;;;;20.29;67.73;99443.13;1690766;84;20131;-77
2021/08/01 02:40:36;;;;;;;;;;;;;;;20.13;68.29;99433.13;1687130;84;20182;-78
2021/08/01 02:43:04;;;;;;;;;;;;;;;20.17;67.96;99437.78;1663816;85;20400;-79
2021/08/01 02:45:30;;;;;;;;;;;;;;;20.12;68.17;99430.15;1683916;84;20184;-78
2021/08/01 02:47:57;;;;;;;;;;;;;;;20.11;67.78;99432.56;1686101;84;21055;-80
2021/08/01 02:50:23;;;;;;;;;;;;;;;20.08;67.78;99437.33;1663149;84;20190;-77
2021/08/01 02:52:56;;;;;;;;;;;;;;;20.07;67.54;99434.88;1683563;84;20208;-77
2021/08/01 02:55:22;;;;;;;;;;;;;;;20.08;67.52;99425.27;1685431;84;20171;-79
2021/08/01 02:57:48;;;;;;;;;;;;;;;20.07;67.73;99427.67;1664769;85;20171;-78
2021/08/01 03:00:14;;;;;;;;;;;;;;;20.13;67.46;99428.58;1688159;84;21111;-78
2021/08/01 03:02:41;;;;;;;;;;;;;;;20.02;67.59;99428.89;1683657;84;20151;-80
2021/08/01 03:05:08;;;;;;;;;;;;;;;20.00;67.42;99432.88;1684421;84;20159;-82
2021/08/01 03:07:36;;;;;;;;;;;;;;;19.96;67.87;99436.53;1661980;84;20164;-80
2021/08/01 03:10:01;;;;;;;;;;;;;;;19.97;67.60;99434.69;1686229;84;20136;-78
2021/08/01 03:12:27;;;;;;;;;;;;;;;20.00;67.34;99436.89;1671874;83;21105;-80
2021/08/01 03:14:56;;;;;;;;;;;;;;;19.90;67.16;99434.79;1667034;84;20153;-80
2021/08/01 03:17:23;;;;;;;;;;;;;;;19.83;67.33;99437.61;1664404;85;20450;-80
2021/08/01 03:19:50;;;;;;;;;;;;;;;19.92;67.47;99435.39;1662183;85;20166;-80
2021/08/01 03:22:16;;;;;;;;;;;;;;;20.01;66.67;99432.64;1668111;85;20160;-81
2021/08/01 03:24:43;;;;;;;;;;;;;;;20.09;66.77;99436.28;1639485;85;21115;-83
2021/08/01 03:27:12;;;;;;;;;;;;;;;20.14;66.48;99442.81;1665640;85;20149;-81
2021/08/01 03:29:40;;;;;;;;;;;;;;;20.06;65.93;99440.78;1664970;85;20169;-81
2021/08/01 03:32:09;;;;;;;;;;;;;;;19.87;66.61;99433.41;1667392;85;20210;-81
2021/08/01 03:34:35;;;;;;;;;;;;;;;19.83;66.94;99442.16;1665440;85;20543;-81
2021/08/01 03:37:02;;;;;;;;;;;;;;;19.82;67.04;99440.52;1663295;84;20595;-82
2021/08/01 03:39:33;;;;;;;;;;;;;;;19.83;67.34;99442.96;1669474;85;20221;-81
2021/08/01 03:41:55;;;;;;;;;;;;;;;19.95;66.92;99440.78;1668495;84;20120;-80
2021/08/01 03:44:20;;;;;;;;;;;;;;;20.03;66.67;99439.91;1669568;85;20190;-81
2021/08/01 03:46:51;;;;;;;;;;;;;;;20.08;65.73;99444.03;1668861;85;20177;-81
2021/08/01 03:49:18;;;;;;;;;;;;;;;20.06;65.33;99446.14;1670846;85;21341;-79
2021/08/01 03:51:47;;;;;;;;;;;;;;;20.12;65.23;99440.38;1666587;85;20161;-79
2021/08/01 03:54:13;;;;;;;;;;;;;;;20.11;65.54;99448.65;1667180;85;20273;-81
2021/08/01 03:56:40;;;;;;;;;;;;;;;20.16;65.64;99450.08;1665280;85;20140;-82
2021/08/01 03:59:08;;;;;;;;;;;;;;;20.02;65.70;99450.33;1667247;85;20193;-80
2021/08/01 04:01:36;;;;;;;;;;;;;;;20.00;66.23;99452.98;1669987;85;20167;-80
2021/08/01 04:04:01;;;;;;;;;;;;;;;20.04;66.46;99446.91;1665210;84;20158;-79
2021/08/01 04:06:27;;;;;;;;;;;;;;;20.07;66.44;99446.44;1668595;84;20208;-79
2021/08/01 04:08:56;;;;;;;;;;;;;;;20.14;66.13;99441.47;1668500;85;20162;-80
2021/08/01 04:11:22;;;;;;;;;;;;;;;20.13;65.85;99441.98;1673765;84;20147;-80
2021/08/01 04:13:51;;;;;;;;;;;;;;;20.08;65.89;99440.01;1665092;85;21098;-79
2021/08/01 04:16:17;;;;;;;;;;;;;;;20.07;66.16;99441.58;1667714;85;20147;-84
2021/08/01 04:18:44;;;;;;;;;;;;;;;20.19;65.55;99450.42;1638866;85;20139;-82
2021/08/01 04:21:10;;;;;;;;;;;;;;;20.14;64.86;99448.17;1666054;85;20128;-81
2021/08/01 04:23:36;;;;;;;;;;;;;;;20.05;65.58;99452.54;1672634;84;20170;-78
2021/08/01 04:26:03;;;;;;;;;;;;;;;20.11;65.90;99450.80;1661777;84;21156;-81
2021/08/01 04:28:29;;;;;;;;;;;;;;;20.16;65.40;99448.74;1672535;85;20169;-81
2021/08/01 04:30:54;;;;;;;;;;;;;;;20.23;64.59;99449.44;1668567;85;20290;-79
2021/08/01 04:33:22;;;;;;;;;;;;;;;20.34;64.85;99449.92;1674579;85;20146;-80
2021/08/01 04:35:48;;;;;;;;;;;;;;;20.42;63.95;99456.78;1669238;85;20205;-80
2021/08/01 04:38:14;;;;;;;;;;;;;;;20.45;63.05;99458.45;1670689;85;21114;-81
2021/08/01 04:40:43;;;;;;;;;;;;;;;20.45;62.76;99462.47;1671920;85;20223;-80
2021/08/01 04:43:11;;;;;;;;;;;;;;;20.45;62.48;99460.33;1664938;85;20452;-80
2021/08/01 04:45:37;;;;;;;;;;;;;;;20.45;61.54;99463.81;1669932;85;20597;-80
2021/08/01 04:48:04;;;;;;;;;;;;;;;20.45;61.88;99466.50;1666869;85;20117;-80
2021/08/01 04:50:32;;;;;;;;;;;;;;;20.53;61.67;99472.55;1671727;85;20147;-80
2021/08/01 04:52:59;;;;;;;;;;;;;;;20.34;62.30;99474.06;1672949;85;20171;-80
2021/08/01 04:55:28;;;;;;;;;;;;;;;20.39;62.54;99478.17;1667932;85;20500;-79
2021/08/01 04:57:53;;;;;;;;;;;;;;;20.36;62.26;99481.33;1668723;85;20234;-79
2021/08/01 05:00:19;;;;;;;;;;;;;;;20.34;63.03;99472.72;1675302;85;20129;-79
2021/08/01 05:02:46;;;;;;;;;;;;;;;20.40;61.77;99465.56;1670059;85;21209;-79
2021/08/01 05:05:12;;;;;;;;;;;;;;;20.45;61.26;99462.47;1667027;85;20122;-78
2021/08/01 05:07:38;;;;;;;;;;;;;;;20.59;61.04;99452.82;1668274;85;20299;-79
2021/08/01 05:10:04;;;;;;;;;;;;;;;20.62;60.84;99436.24;1666887;85;20193;-80
2021/08/01 05:12:32;;;;;;;;;;;;;;;20.71;60.98;99441.55;1683000;84;20545;-79
2021/08/01 05:15:01;;;;;;;;;;;;;;;20.73;61.32;99447.47;1696792;84;21274;-79
2021/08/01 05:17:26;;;;;;;;;;;;;;;20.77;61.00;99447.29;1662079;84;20223;-80
2021/08/01 05:19:53;;;;;;;;;;;;;;;20.77;60.19;99452.66;1697588;83;20633;-80
2021/08/01 05:22:18;;;;;;;;;;;;;;;20.82;60.13;99459.16;1690117;84;20872;-80
2021/08/01 05:24:45;;;;;;;;;;;;;;;20.83;60.16;99463.48;1693110;84;20384;-79
2021/08/01 05:27:11;;;;;;;;;;;;;;;20.98;59.73;99471.80;1692732;84;22036;-78
2021/08/01 05:29:37;;;;;;;;;;;;;;;20.91;59.93;99476.49;1693054;84;20233;-78
2021/08/01 05:32:04;;;;;;;;;;;;;;;20.91;60.81;99480.52;1692422;84;20470;-82
2021/08/01 05:34:31;;;;;;;;;;;;;;;21.00;60.34;99485.78;1690967;84;20194;-78
2021/08/01 05:36:58;;;;;;;;;;;;;;;21.07;60.25;99493.17;1697651;83;20448;-78
2021/08/01 05:39:24;;;;;;;;;;;;;;;21.07;61.05;99486.46;1690077;84;21100;-82
2021/08/01 05:41:53;;;;;;;;;;;;;;;21.06;61.39;99487.51;1696906;84;20495;-81
2021/08/01 05:44:24;;;;;;;;;;;;;;;21.02;61.58;99493.09;1689013;84;20144;-80
2021/08/01 05:46:52;;;;;;;;;;;;;;;21.13;61.53;99494.89;1687784;83;20621;-82
2021/08/01 05:49:17;;;;;;;;;;;;;;;21.12;61.56;99483.05;1694628;83;20451;-77
2021/08/01 05:51:45;;;;;;;;;;;;;;;21.22;60.77;99482.41;1698753;83;21116;-78
2021/08/01 05:54:10;;;;;;;;;;;;;;;21.28;59.44;99481.43;1692397;83;20186;-78
2021/08/01 05:56:38;;;;;;;;;;;;;;;21.33;60.05;99472.11;1691160;82;20261;-78
2021/08/01 05:59:05;;;;;;;;;;;;;;;21.51;59.85;99473.23;1693851;83;20346;-77
2021/08/01 06:01:31;;;;;;;;;;;;;;;21.56;58.01;99471.70;1691867;82;20085;-78
2021/08/01 06:03:58;;;;;;;;;;;;;;;21.69;58.31;99466.00;1693645;83;21964;-78
2021/08/01 06:06:25;;;;;;;;;;;;;;;21.76;56.77;99471.20;1695682;83;20203;-82
2021/08/01 06:08:53;;;;;;;;;;;;;;;21.90;56.69;99477.03;1694192;83;20925;-78
2021/08/01 06:11:20;;;;;;;;;;;;;;;21.95;56.55;99475.75;1690790;83;20190;-78
2021/08/01 06:13:45;;;;;;;;;;;;;;;22.09;56.53;99472.98;1692940;83;20178;-81
2021/08/01 06:16:14;;;;;;;;;;;;;;;22.24;56.02;99475.87;1659869;84;20971;-81
2021/08/01 06:18:43;;;;;;;;;;;;;;;22.21;55.52;99475.02;1684827;83;20187;-81
2021/08/01 06:21:17;;;;;;;;;;;;;;;22.29;55.32;99478.35;1689532;83;20235;-79
2021/08/01 06:23:39;;;;;;;;;;;;;;;22.33;55.14;99479.52;1694278;83;20646;-78
2021/08/01 06:26:04;;;;;;;;;;;;;;;22.42;55.16;99479.36;1691431;84;20221;-79
2021/08/01 06:28:31;;;;;;;;;;;;;;;22.55;54.96;99481.66;1694801;83;21089;-79
2021/08/01 06:30:58;;;;;;;;;;;;;;;22.63;54.83;99488.47;1658742;84;20177;-80
2021/08/01 06:33:24;;;;;;;;;;;;;;;22.64;54.14;99491.96;1693026;84;20616;-80
2021/08/01 06:35:49;;;;;;;;;;;;;;;22.74;53.66;99485.36;1693096;84;20184;-83
2021/08/01 06:38:15;;;;;;;;;;;;;;;22.80;54.37;99474.92;1693536;84;20732;-77
2021/08/01 06:40:40;;;;;;;;;;;;;;;22.84;54.33;99484.13;1697497;83;20592;-78
2021/08/01 06:43:06;;;;;;;;;;;;;;;22.96;54.27;99475.87;1695350;83;20680;-78
2021/08/01 06:45:34;;;;;;;;;;;;;;;22.95;53.35;99481.81;1662933;84;20150;-77
2021/08/01 06:48:00;;;;;;;;;;;;;;;23.05;53.23;99484.32;1692123;83;20210;-78
2021/08/01 06:50:28;;;;;;;;;;;;;;;23.16;51.40;99478.53;1690521;83;20167;-79
2021/08/01 06:52:54;;;;;;;;;;;;;;;23.19;49.95;99477.47;1697053;84;20161;-79
2021/08/01 06:55:20;;;;;;;;;;;;;;;23.30;50.62;99479.20;1695494;83;20162;-77
2021/08/01 06:57:46;;;;;;;;;;;;;;;23.41;50.48;99481.97;1693298;83;20237;-76
2021/08/01 07:00:12;;;;;;;;;;;;;;;23.45;48.87;99476.34;1696021;83;20504;-77
2021/08/01 07:02:39;;;;;;;;;;;;;;;23.59;47.32;99480.77;1695056;83;20206;-78
2021/08/01 07:05:08;;;;;;;;;;;;;;;23.59;47.35;99470.78;1698224;83;21188;-77
2021/08/01 07:07:33;;;;;;;;;;;;;;;23.60;47.75;99481.02;1692820;83;20455;-77
2021/08/01 07:10:01;;;;;;;;;;;;;;;23.55;47.25;99479.09;1694950;83;20146;-80
2021/08/01 07:12:26;;;;;;;;;;;;;;;23.52;46.48;99480.16;1693291;82;20562;-78
2021/08/01 07:14:54;;;;;;;;;;;;;;;23.57;46.44;99481.02;1685970;84;20165;-77
2021/08/01 07:17:22;;;;;;;;;;;;;;;23.68;46.84;99489.16;1695389;83;20139;-82
2021/08/01 07:19:49;;;;;;;;;;;;;;;23.80;46.63;99484.39;1693629;82;20130;-78
2021/08/01 07:22:15;;;;;;;;;;;;;;;23.90;46.25;99487.19;1692829;84;20614;-78
2021/08/01 07:24:41;;;;;;;;;;;;;;;23.96;46.53;99486.15;1689346;83;20604;-79
2021/08/01 07:27:07;;;;;;;;;;;;;;;24.01;46.64;99488.87;1692549;83;20133;-78
2021/08/01 07:29:33;;;;;;;;;;;;;;;24.12;46.70;99484.88;1691087;83;21917;-78
2021/08/01 07:31:58;;;;;;;;;;;;;;;24.20;46.06;99476.28;1693824;83;20144;-79
2021/08/01 07:34:25;;;;;;;;;;;;;;;24.33;45.48;99483.08;1695633;83;20834;-80
2021/08/01 07:36:51;;;;;;;;;;;;;;;24.46;45.29;99481.80;1695275;83;20323;-76
2021/08/01 07:39:18;;;;;;;;;;;;;;;24.43;44.40;99472.88;1663299;83;20141;-75
2021/08/01 07:41:46;;;;;;;;;;;;;;;24.51;45.00;99477.75;1693546;83;21151;-77
2021/08/01 07:44:11;;;;;;;;;;;;;;;24.49;43.91;99483.41;1695342;83;20724;-76
2021/08/01 07:46:37;;;;;;;;;;;;;;;24.52;43.24;99480.19;1696591;83;20144;-77
2021/08/01 07:49:04;;;;;;;;;;;;;;;24.42;43.52;99474.74;1690816;83;21077;-75
2021/08/01 07:51:31;;;;;;;;;;;;;;;24.49;42.52;99466.42;1695008;83;20536;-76
2021/08/01 07:53:56;;;;;;;;;;;;;;;24.56;42.30;99469.66;1694186;83;21102;-81
2021/08/01 07:56:24;;;;;;;;;;;;;;;24.63;42.14;99472.97;1693444;83;21545;-75
2021/08/01 07:58:52;;;;;;;;;;;;;;;24.70;42.65;99476.23;1690113;83;20175;-76
2021/08/01 08:01:18;;;;;;;;;;;;;;;24.80;43.36;99466.53;1691165;83;20211;-76
2021/08/01 08:03:44;;;;;;;;;;;;;;;24.84;44.68;99465.70;1661751;84;20187;-80
2021/08/01 08:06:12;;;;;;;;;;;;;;;24.92;46.53;99472.47;1695615;84;21103;-79
2021/08/01 08:08:40;;;;;;;;;;;;;;;24.93;45.82;99476.80;1689458;83;20155;-77
2021/08/01 08:11:08;;;;;;;;;;;;;;;24.86;45.24;99482.47;1663941;84;20163;-76
2021/08/01 08:13:36;;;;;;;;;;;;;;;24.87;45.45;99483.27;1692162;83;21058;-80
2021/08/01 08:16:01;;;;;;;;;;;;;;;24.77;45.98;99488.13;1692946;83;20340;-80
2021/08/01 08:18:27;;;;;;;;;;;;;;;24.82;46.29;99496.77;1693868;84;21095;-76
2021/08/01 08:20:53;;;;;;;;;;;;;;;24.73;46.55;99491.91;1696510;83;20170;-78
2021/08/01 08:23:23;;;;;;;;;;;;;;;24.73;47.37;99494.60;1695271;83;20826;-78
2021/08/01 08:25:50;;;;;;;;;;;;;;;24.72;48.19;99491.63;1692343;83;20197;-81
2021/08/01 08:28:17;;;;;;;;;;;;;;;24.65;48.84;99491.59;1669603;84;20870;-77
2021/08/01 08:30:45;;;;;;;;;;;;;;;24.60;49.28;99481.59;1665032;84;20172;-78
2021/08/01 08:33:12;;;;;;;;;;;;;;;24.57;49.47;99477.24;1693426;83;20448;-78
2021/08/01 08:35:42;;;;;;;;;;;;;;;24.61;49.45;99472.43;1696379;83;20098;-79
2021/08/01 08:38:12;;;;;;;;;;;;;;;24.67;50.03;99472.72;1694783;84;20158;-78
2021/08/01 08:40:41;;;;;;;;;;;;;;;24.59;47.16;99477.81;1695199;84;20176;-77
2021/08/01 08:43:07;;;;;;;;;;;;;;;24.53;45.14;99475.59;1695937;84;21789;-78
2021/08/01 08:45:34;;;;;;;;;;;;;;;24.54;46.15;99482.63;1662172;83;20499;-78
2021/08/01 08:48:00;;;;;;;;;;;;;;;24.63;46.23;99489.71;1697451;84;20463;-77
2021/08/01 08:50:27;;;;;;;;;;;;;;;24.62;44.84;99487.53;1694105;84;20134;-78
2021/08/01 08:52:58;;;;;;;;;;;;;;;24.66;44.46;99480.53;1697145;84;20177;-77
2021/08/01 08:55:29;;;;;;;;;;;;;;;24.78;45.44;99478.13;1698856;84;21167;-78
2021/08/01 08:58:00;;;;;;;;;;;;;;;24.86;46.07;99473.54;1663697;84;20923;-78
2021/08/01 09:00:22;;;;;;;;;;;;;;;24.94;45.32;99479.78;1696657;83;21085;-78
2021/08/01 09:02:48;;;;;;;;;;;;;;;25.00;43.58;99469.78;1695631;83;20218;-78
2021/08/01 09:05:13;;;;;;;;;;;;;;;25.03;43.24;99461.97;1666605;83;20273;-77
2021/08/01 09:07:40;;;;;;;;;;;;;;;25.14;42.86;99460.61;1696486;83;20990;-78
2021/08/01 09:10:11;;;;;;;;;;;;;;;25.25;43.37;99462.25;1697636;83;20134;-76
2021/08/01 09:12:42;;;;;;;;;;;;;;;25.40;44.72;99454.16;1691850;83;20196;-78
2021/08/01 09:15:17;;;;;;;;;;;;;;;25.54;45.02;99445.48;1695101;83;20195;-80
2021/08/01 09:17:42;;;;;;;;;;;;;;;25.57;44.31;99438.17;1689540;83;20167;-76
2021/08/01 09:20:18;;;;;;;;;;;;;;;25.62;44.26;99447.63;1689732;83;21112;-79
2021/08/01 09:22:54;;;;;;;;;;;;;;;25.67;44.24;99442.22;1689764;83;20174;-79
2021/08/01 09:25:27;;;;;;;;;;;;;;;25.75;43.83;99443.56;1660552;84;20175;-76
2021/08/01 09:27:50;;;;;;;;;;;;;;;25.82;43.18;99432.45;1693274;83;20649;-77
2021/08/01 09:30:15;;;;;;;;;;;;;;;25.94;43.42;99435.66;1660076;84;20138;-75
2021/08/01 09:32:46;;;;;;;;;;;;;;;26.08;44.32;99435.91;1691299;83;21168;-79
2021/08/01 09:35:20;;;;;;;;;;;;;;;26.18;44.13;99433.70;1664169;84;20130;-78
2021/08/01 09:38:00;;;;;;;;;;;;;;;26.27;43.58;99429.33;1691808;83;20162;-75
2021/08/01 09:40:30;;;;;;;;;;;;;;;26.36;42.88;99422.23;1687095;83;20306;-75
2021/08/01 09:43:04;;;;;;;;;;;;;;;26.42;44.01;99425.73;1667179;84;20624;-81
2021/08/01 09:45:32;;;;;;;;;;;;;;;26.48;44.29;99426.78;1658038;83;21369;-79
2021/08/01 09:50:36;;;;;;;;;;;;;;;26.54;42.92;99417.27;1673568;80;22287;-89
2021/08/01 09:53:05;;;;;;;;;;;;;;;26.43;42.85;99409.22;1638992;85;21137;-93
2021/08/01 09:55:31;;;;;;;;;;;;;;;26.48;44.17;99406.47;1673838;84;20182;-93
2021/08/01 09:58:01;;;;;;;;;;;;;;;26.55;43.48;99412.92;1674820;83;21104;-90
2021/08/01 10:00:27;;;;;;;;;;;;;;;26.50;43.38;99407.55;1676980;84;20144;-87
2021/08/01 10:02:57;;;;;;;;;;;;;;;26.47;44.09;99404.84;1678718;83;20194;-91
2021/08/01 10:05:28;;;;;;;;;;;;;;;26.53;44.83;99405.63;1649315;84;39047;-91
2021/08/01 10:07:54;;;;;;;;;;;;;;;26.44;44.70;99404.60;1679822;84;20166;-91
2021/08/01 10:10:27;;;;;;;;;;;;;;;26.41;45.76;99401.90;1673503;84;21117;-90
2021/08/01 10:12:57;;;;;;;;;;;;;;;26.33;43.29;99391.14;1659886;84;20242;-89
2021/08/01 10:15:22;;;;;;;;;;;;;;;26.35;42.36;99394.89;1678206;83;20194;-89
2021/08/01 10:17:48;;;;;;;;;;;;;;;26.25;41.11;99400.38;1679212;83;20131;-89
2021/08/01 10:20:14;;;;;;;;;;;;;;;26.26;41.32;99391.19;1679269;84;20151;-91
2021/08/01 10:22:43;;;;;;;;;;;;;;;26.23;40.53;99387.12;1678865;83;21901;-92
2021/08/01 10:25:19;;;;;;;;;;;;;;;26.18;41.40;99389.04;1682070;84;20200;-89
2021/08/01 10:27:48;;;;;;;;;;;;;;;26.10;41.23;99381.80;1681264;84;20143;-90
2021/08/01 10:30:17;;;;;;;;;;;;;;;26.05;41.73;99375.03;1679353;83;20204;-92
2021/08/01 10:32:46;;;;;;;;;;;;;;;26.00;41.41;99373.70;1653660;84;20658;-90
2021/08/01 10:35:17;;;;;;;;;;;;;;;25.98;42.35;99369.13;1679047;83;20147;-88
2021/08/01 10:37:47;;;;;;;;;;;;;;;25.96;43.06;99366.67;1679286;83;20154;-89
2021/08/01 10:40:21;;;;;;;;;;;;;;;25.95;43.79;99366.95;1677043;83;20124;-90
2021/08/01 10:43:03;;;;;;;;;;;;;;;25.99;44.71;99370.73;1659078;84;20187;-90
2021/08/01 10:45:28;;;;;;;;;;;;;;;25.96;45.97;99366.67;1678046;83;20144;-88
2021/08/01 10:47:54;;;;;;;;;;;;;;;25.92;46.35;99376.42;1677524;83;21168;-90
2021/08/01 10:50:29;;;;;;;;;;;;;;;25.92;47.08;99374.27;1675809;84;20150;-91
2021/08/01 10:53:26;;;;;;;;;;;;;;;25.91;47.89;99367.23;1678001;84;20154;-92
2021/08/01 10:56:08;;;;;;;;;;;;;;;25.93;48.05;99370.45;1673149;83;20164;-91
2021/08/01 10:58:36;;;;;;;;;;;;;;;25.94;47.69;99358.55;1676125;84;20183;-90
2021/08/01 11:01:03;;;;;;;;;;;;;;;26.00;47.88;99352.06;1677168;83;21918;-89
2021/08/01 11:03:33;;;;;;;;;;;;;;;26.02;48.06;99347.17;1675061;83;20183;-90
2021/08/01 11:05:59;;;;;;;;;;;;;;;25.98;48.54;99336.11;1658591;84;20163;-89
2021/08/01 11:08:29;;;;;;;;;;;;;;;25.95;48.32;99331.78;1676460;84;20212;-92
2021/08/01 11:11:16;;;;;;;;;;;;;;;25.95;46.86;99319.61;1676121;84;20219;-89
2021/08/01 11:13:44;;;;;;;;;;;;;;;25.93;46.50;99317.70;1658466;85;21785;-90
2021/08/01 11:16:11;;;;;;;;;;;;;;;25.98;46.63;99316.38;1681630;83;20158;-91
2021/08/01 11:18:38;;;;;;;;;;;;;;;25.93;46.41;99312.29;1676651;84;20192;-91
2021/08/01 11:21:04;;;;;;;;;;;;;;;25.90;46.77;99316.38;1677539;84;20158;-91
2021/08/01 11:23:49;;;;;;;;;;;;;;;25.86;47.74;99315.31;1681406;83;20723;-90
2021/08/01 11:26:18;;;;;;;;;;;;;;;25.73;48.25;99311.32;1681774;84;21370;-89
2021/08/01 11:28:45;;;;;;;;;;;;;;;25.71;49.29;99320.23;1671714;84;20145;-89
2021/08/01 11:31:25;;;;;;;;;;;;;;;25.70;49.89;99322.69;1674621;84;20155;-93
2021/08/01 11:33:53;;;;;;;;;;;;;;;25.67;50.10;99321.89;1679999;84;20143;-94
2021/08/01 11:36:30;;;;;;;;;;;;;;;25.64;50.33;99329.20;1679664;84;20220;-92
2021/08/01 11:38:59;;;;;;;;;;;;;;;25.54;50.40;99330.06;1679136;84;22368;-91
2021/08/01 11:41:34;;;;;;;;;;;;;;;25.47;50.81;99331.44;1674718;85;20256;-94
2021/08/01 11:44:07;;;;;;;;;;;;;;;25.49;51.11;99328.70;1680420;85;20199;-90
2021/08/01 11:46:54;;;;;;;;;;;;;;;25.39;50.40;99329.55;1678544;85;20227;-93
2021/08/01 11:49:22;;;;;;;;;;;;;;;25.31;49.92;99338.23;1674435;84;20514;-92
2021/08/01 11:51:51;;;;;;;;;;;;;;;25.30;50.78;99339.30;1679670;84;21885;-93
2021/08/01 11:54:17;;;;;;;;;;;;;;;25.27;51.21;99331.71;1682146;85;20112;-91
2021/08/01 11:56:44;;;;;;;;;;;;;;;25.18;49.88;99333.35;1679089;84;20193;-92
2021/08/01 11:59:13;;;;;;;;;;;;;;;25.11;49.34;99323.36;1679992;85;20170;-91
2021/08/01 12:01:41;;;;;;;;;;;;;;;25.08;49.67;99328.23;1676842;84;20175;-92
2021/08/01 12:04:09;;;;;;;;;;;;;;;25.03;50.90;99328.25;1676187;85;20943;-91
2021/08/01 12:06:39;;;;;;;;;;;;;;;25.05;52.14;99329.33;1659363;85;20593;-91
2021/08/01 12:09:23;;;;;;;;;;;;;;;24.88;52.78;99323.66;1675237;84;20208;-92
2021/08/01 12:11:53;;;;;;;;;;;;;;;24.78;52.44;99325.55;1665040;83;20158;-94
2021/08/01 12:14:36;;;;;;;;;;;;;;;24.75;52.37;99326.09;1682533;83;20262;-93
2021/08/01 12:17:09;;;;;;;;;;;;;;;24.73;52.71;99320.96;1682038;85;21019;-94
2021/08/01 12:19:44;;;;;;;;;;;;;;;24.71;52.97;99324.48;1664836;85;20130;-91
2021/08/01 12:22:11;;;;;;;;;;;;;;;24.79;53.73;99324.48;1682089;84;20178;-92
2021/08/01 12:24:49;;;;;;;;;;;;;;;24.77;53.08;99315.85;1682053;85;20194;-91
2021/08/01 12:27:17;;;;;;;;;;;;;;;24.79;52.18;99320.43;1679987;83;20941;-92
2021/08/01 12:29:51;;;;;;;;;;;;;;;24.88;51.62;99320.16;1682125;85;21337;-90
2021/08/01 12:32:30;;;;;;;;;;;;;;;24.93;50.90;99326.90;1663434;84;20123;-91
2021/08/01 12:35:17;;;;;;;;;;;;;;;24.92;51.65;99323.91;1677232;84;20125;-94
2021/08/01 12:38:00;;;;;;;;;;;;;;;24.92;52.32;99323.91;1671590;84;20198;-94
2021/08/01 12:40:34;;;;;;;;;;;;;;;24.96;52.79;99321.50;1680903;84;20116;-93
2021/08/01 12:43:17;;;;;;;;;;;;;;;24.87;52.74;99316.63;1677518;84;21339;-94
2021/08/01 12:45:45;;;;;;;;;;;;;;;24.87;54.00;99318.53;1663731;85;20198;-93
2021/08/01 12:48:26;;;;;;;;;;;;;;;24.86;54.35;99317.73;1681711;84;20107;-93
2021/08/01 12:50:55;;;;;;;;;;;;;;;24.86;54.88;99316.90;1677328;84;20129;-91
2021/08/01 12:53:22;;;;;;;;;;;;;;;24.76;54.28;99319.62;1681327;84;20171;-91
2021/08/01 12:55:54;;;;;;;;;;;;;;;24.71;54.65;99323.94;1680303;85;21166;-88
2021/08/01 12:58:39;;;;;;;;;;;;;;;24.73;54.28;99330.41;1683041;85;20136;-94